sensor_id;sensor_type;location;lat;lon;timestamp;P1;durP1;ratioP1;P2;durP2;ratioP2
50649;SDS011;36621;60.058;30.346;2023-11-19T00:06:03;4.13;;;2.90;;
50649;SDS011;36621;60.058;30.346;2023-11-19T00:13:37;4.20;;;2.85;;
50649;SDS011;36621;60.058;30.346;2023-11-19T00:21:09;3.72;;;2.22;;
50649;SDS011;36621;60.058;30.346;2023-11-19T00:28:42;3.53;;;2.33;;
50649;SDS011;36621;60.058;30.346;2023-11-19T00:36:14;5.22;;;2.40;;
50649;SDS011;36621;60.058;30.346;2023-11-19T00:43:47;3.00;;;1.92;;
50649;SDS011;36621;60.058;30.346;2023-11-19T00:51:20;4.25;;;2.17;;
50649;SDS011;36621;60.058;30.346;2023-11-19T00:58:53;2.70;;;1.95;;
50649;SDS011;36621;60.058;30.346;2023-11-19T01:06:28;2.55;;;2.20;;
50649;SDS011;36621;60.058;30.346;2023-11-19T01:14:02;4.18;;;2.42;;
50649;SDS011;36621;60.058;30.346;2023-11-19T01:21:34;3.30;;;2.30;;
50649;SDS011;36621;60.058;30.346;2023-11-19T01:29:07;2.92;;;2.25;;
50649;SDS011;36621;60.058;30.346;2023-11-19T01:36:39;2.33;;;1.90;;
50649;SDS011;36621;60.058;30.346;2023-11-19T01:44:12;4.43;;;2.15;;
50649;SDS011;36621;60.058;30.346;2023-11-19T01:51:44;4.45;;;2.08;;
50649;SDS011;36621;60.058;30.346;2023-11-19T01:59:20;3.10;;;1.80;;
50649;SDS011;36621;60.058;30.346;2023-11-19T02:06:57;2.58;;;1.98;;
50649;SDS011;36621;60.058;30.346;2023-11-19T02:14:31;3.13;;;2.10;;
50649;SDS011;36621;60.058;30.346;2023-11-19T02:22:03;7.78;;;2.17;;
50649;SDS011;36621;60.058;30.346;2023-11-19T02:29:37;2.65;;;1.90;;
50649;SDS011;36621;60.058;30.346;2023-11-19T02:37:09;3.28;;;2.15;;
50649;SDS011;36621;60.058;30.346;2023-11-19T02:44:44;4.38;;;2.42;;
50649;SDS011;36621;60.058;30.346;2023-11-19T02:52:16;3.55;;;2.38;;
50649;SDS011;36621;60.058;30.346;2023-11-19T02:59:49;22.27;;;3.15;;
50649;SDS011;36621;60.058;30.346;2023-11-19T03:07:21;3.83;;;1.85;;
50649;SDS011;36621;60.058;30.346;2023-11-19T03:14:55;2.92;;;2.20;;
50649;SDS011;36621;60.058;30.346;2023-11-19T03:22:27;5.72;;;2.85;;
50649;SDS011;36621;60.058;30.346;2023-11-19T03:30:00;6.65;;;2.05;;
50649;SDS011;36621;60.058;30.346;2023-11-19T03:37:34;15.00;;;2.40;;
50649;SDS011;36621;60.058;30.346;2023-11-19T03:45:08;11.38;;;2.40;;
50649;SDS011;36621;60.058;30.346;2023-11-19T03:52:41;4.05;;;2.20;;
50649;SDS011;36621;60.058;30.346;2023-11-19T04:00:15;6.60;;;1.98;;
50649;SDS011;36621;60.058;30.346;2023-11-19T04:07:49;3.58;;;1.98;;
50649;SDS011;36621;60.058;30.346;2023-11-19T04:15:22;8.90;;;2.42;;
50649;SDS011;36621;60.058;30.346;2023-11-19T04:22:55;8.38;;;2.15;;
50649;SDS011;36621;60.058;30.346;2023-11-19T04:30:27;4.20;;;1.90;;
50649;SDS011;36621;60.058;30.346;2023-11-19T04:38:00;7.22;;;2.03;;
50649;SDS011;36621;60.058;30.346;2023-11-19T04:45:32;28.70;;;2.97;;
50649;SDS011;36621;60.058;30.346;2023-11-19T04:53:05;4.82;;;1.92;;
50649;SDS011;36621;60.058;30.346;2023-11-19T05:00:38;13.18;;;2.45;;
50649;SDS011;36621;60.058;30.346;2023-11-19T05:08:10;15.30;;;2.80;;
50649;SDS011;36621;60.058;30.346;2023-11-19T05:15:43;15.38;;;2.30;;
50649;SDS011;36621;60.058;30.346;2023-11-19T05:23:15;7.05;;;2.20;;
50649;SDS011;36621;60.058;30.346;2023-11-19T05:30:48;6.40;;;2.05;;
50649;SDS011;36621;60.058;30.346;2023-11-19T05:38:20;8.20;;;1.98;;
50649;SDS011;36621;60.058;30.346;2023-11-19T05:45:53;20.73;;;2.80;;
50649;SDS011;36621;60.058;30.346;2023-11-19T05:53:25;27.77;;;4.78;;
50649;SDS011;36621;60.058;30.346;2023-11-19T06:00:58;11.75;;;2.28;;
50649;SDS011;36621;60.058;30.346;2023-11-19T06:08:32;11.35;;;2.53;;
50649;SDS011;36621;60.058;30.346;2023-11-19T06:16:05;16.45;;;3.28;;
50649;SDS011;36621;60.058;30.346;2023-11-19T06:23:38;18.75;;;5.40;;
50649;SDS011;36621;60.058;30.346;2023-11-19T06:31:11;12.75;;;4.30;;
50649;SDS011;36621;60.058;30.346;2023-11-19T06:38:47;17.85;;;3.55;;
50649;SDS011;36621;60.058;30.346;2023-11-19T06:46:20;14.35;;;3.13;;
50649;SDS011;36621;60.058;30.346;2023-11-19T06:53:52;19.48;;;4.78;;
50649;SDS011;36621;60.058;30.346;2023-11-19T07:01:25;18.48;;;2.97;;
50649;SDS011;36621;60.058;30.346;2023-11-19T07:08:58;27.05;;;4.03;;
50649;SDS011;36621;60.058;30.346;2023-11-19T07:16:31;17.52;;;3.95;;
50649;SDS011;36621;60.058;30.346;2023-11-19T07:24:04;23.20;;;3.78;;
50649;SDS011;36621;60.058;30.346;2023-11-19T07:31:37;19.15;;;3.65;;
50649;SDS011;36621;60.058;30.346;2023-11-19T07:39:09;10.52;;;3.20;;
50649;SDS011;36621;60.058;30.346;2023-11-19T07:46:42;17.58;;;3.45;;
50649;SDS011;36621;60.058;30.346;2023-11-19T07:54:15;32.83;;;4.25;;
50649;SDS011;36621;60.058;30.346;2023-11-19T08:01:48;24.65;;;3.90;;
50649;SDS011;36621;60.058;30.346;2023-11-19T08:09:21;17.63;;;4.03;;
50649;SDS011;36621;60.058;30.346;2023-11-19T08:16:54;14.15;;;3.83;;
50649;SDS011;36621;60.058;30.346;2023-11-19T08:24:27;15.32;;;3.55;;
50649;SDS011;36621;60.058;30.346;2023-11-19T08:32:00;22.30;;;3.58;;
50649;SDS011;36621;60.058;30.346;2023-11-19T08:39:34;14.50;;;3.72;;
50649;SDS011;36621;60.058;30.346;2023-11-19T08:47:09;30.02;;;5.82;;
50649;SDS011;36621;60.058;30.346;2023-11-19T08:54:42;16.63;;;3.50;;
50649;SDS011;36621;60.058;30.346;2023-11-19T09:02:15;19.75;;;4.32;;
50649;SDS011;36621;60.058;30.346;2023-11-19T09:09:48;21.38;;;4.03;;
50649;SDS011;36621;60.058;30.346;2023-11-19T09:17:20;35.80;;;4.55;;
50649;SDS011;36621;60.058;30.346;2023-11-19T09:24:53;49.85;;;5.88;;
50649;SDS011;36621;60.058;30.346;2023-11-19T09:32:25;51.88;;;7.13;;
50649;SDS011;36621;60.058;30.346;2023-11-19T09:39:58;59.80;;;9.38;;
50649;SDS011;36621;60.058;30.346;2023-11-19T09:47:36;13.27;;;4.53;;
50649;SDS011;36621;60.058;30.346;2023-11-19T09:55:08;19.42;;;3.92;;
50649;SDS011;36621;60.058;30.346;2023-11-19T10:02:41;24.65;;;4.82;;
50649;SDS011;36621;60.058;30.346;2023-11-19T10:10:17;27.00;;;4.47;;
50649;SDS011;36621;60.058;30.346;2023-11-19T10:17:51;31.92;;;5.75;;
50649;SDS011;36621;60.058;30.346;2023-11-19T10:25:23;40.70;;;6.88;;
50649;SDS011;36621;60.058;30.346;2023-11-19T10:33:04;28.30;;;5.38;;
50649;SDS011;36621;60.058;30.346;2023-11-19T10:40:37;31.20;;;5.93;;
50649;SDS011;36621;60.058;30.346;2023-11-19T10:48:12;17.15;;;5.55;;
50649;SDS011;36621;60.058;30.346;2023-11-19T10:55:45;31.10;;;7.07;;
50649;SDS011;36621;60.058;30.346;2023-11-19T11:03:24;41.55;;;7.28;;
50649;SDS011;36621;60.058;30.346;2023-11-19T11:10:58;90.55;;;9.88;;
50649;SDS011;36621;60.058;30.346;2023-11-19T11:18:33;38.28;;;7.40;;
50649;SDS011;36621;60.058;30.346;2023-11-19T11:26:18;26.55;;;6.47;;
50649;SDS011;36621;60.058;30.346;2023-11-19T11:34:18;43.88;;;8.65;;
50649;SDS011;36621;60.058;30.346;2023-11-19T11:50:06;19.70;;;5.88;;
50649;SDS011;36621;60.058;30.346;2023-11-19T11:57:40;34.17;;;7.45;;
50649;SDS011;36621;60.058;30.346;2023-11-19T12:05:13;30.88;;;7.55;;
50649;SDS011;36621;60.058;30.346;2023-11-19T12:12:46;25.63;;;7.57;;
50649;SDS011;36621;60.058;30.346;2023-11-19T12:20:20;26.88;;;6.70;;
50649;SDS011;36621;60.058;30.346;2023-11-19T12:27:53;31.98;;;6.47;;
50649;SDS011;36621;60.058;30.346;2023-11-19T12:35:28;21.63;;;5.93;;
50649;SDS011;36621;60.058;30.346;2023-11-19T12:43:01;34.90;;;6.45;;
50649;SDS011;36621;60.058;30.346;2023-11-19T12:58:28;27.38;;;6.75;;
50649;SDS011;36621;60.058;30.346;2023-11-19T13:06:02;22.92;;;5.50;;
50649;SDS011;36621;60.058;30.346;2023-11-19T13:13:55;10.75;;;5.03;;
50649;SDS011;36621;60.058;30.346;2023-11-19T13:21:29;14.18;;;5.38;;
50649;SDS011;36621;60.058;30.346;2023-11-19T13:29:01;25.77;;;5.55;;
50649;SDS011;36621;60.058;30.346;2023-11-19T13:36:34;11.85;;;5.88;;
50649;SDS011;36621;60.058;30.346;2023-11-19T13:44:07;16.05;;;6.80;;
50649;SDS011;36621;60.058;30.346;2023-11-19T13:51:39;14.85;;;6.05;;
50649;SDS011;36621;60.058;30.346;2023-11-19T13:59:12;18.70;;;5.68;;
50649;SDS011;36621;60.058;30.346;2023-11-19T14:06:45;13.43;;;5.68;;
50649;SDS011;36621;60.058;30.346;2023-11-19T14:14:17;13.77;;;5.40;;
50649;SDS011;36621;60.058;30.346;2023-11-19T14:21:50;28.40;;;8.57;;
50649;SDS011;36621;60.058;30.346;2023-11-19T14:29:22;16.75;;;5.82;;
50649;SDS011;36621;60.058;30.346;2023-11-19T14:36:55;10.05;;;5.32;;
50649;SDS011;36621;60.058;30.346;2023-11-19T14:44:27;17.75;;;5.47;;
50649;SDS011;36621;60.058;30.346;2023-11-19T14:52:03;21.08;;;5.88;;
50649;SDS011;36621;60.058;30.346;2023-11-19T14:59:38;19.17;;;6.00;;
50649;SDS011;36621;60.058;30.346;2023-11-19T15:07:11;15.55;;;5.85;;
50649;SDS011;36621;60.058;30.346;2023-11-19T15:14:43;16.60;;;5.47;;
50649;SDS011;36621;60.058;30.346;2023-11-19T15:22:16;15.48;;;4.70;;
50649;SDS011;36621;60.058;30.346;2023-11-19T15:29:49;21.88;;;4.65;;
50649;SDS011;36621;60.058;30.346;2023-11-19T15:37:22;9.65;;;4.25;;
50649;SDS011;36621;60.058;30.346;2023-11-19T15:44:54;17.35;;;4.50;;
50649;SDS011;36621;60.058;30.346;2023-11-19T15:52:27;6.55;;;4.22;;
50649;SDS011;36621;60.058;30.346;2023-11-19T16:00:01;19.88;;;4.45;;
50649;SDS011;36621;60.058;30.346;2023-11-19T16:07:37;14.43;;;4.20;;
50649;SDS011;36621;60.058;30.346;2023-11-19T16:15:09;24.23;;;9.30;;
50649;SDS011;36621;60.058;30.346;2023-11-19T16:22:44;23.35;;;8.00;;
50649;SDS011;36621;60.058;30.346;2023-11-19T16:30:21;24.42;;;8.35;;
50649;SDS011;36621;60.058;30.346;2023-11-19T16:37:54;16.65;;;7.68;;
50649;SDS011;36621;60.058;30.346;2023-11-19T16:45:28;23.08;;;11.32;;
50649;SDS011;36621;60.058;30.346;2023-11-19T16:53:29;21.00;;;8.45;;
50649;SDS011;36621;60.058;30.346;2023-11-19T17:01:02;14.68;;;7.85;;
50649;SDS011;36621;60.058;30.346;2023-11-19T17:08:37;16.58;;;7.97;;
50649;SDS011;36621;60.058;30.346;2023-11-19T17:16:09;20.02;;;8.07;;
50649;SDS011;36621;60.058;30.346;2023-11-19T17:23:42;15.90;;;7.35;;
50649;SDS011;36621;60.058;30.346;2023-11-19T17:31:15;11.35;;;5.43;;
50649;SDS011;36621;60.058;30.346;2023-11-19T17:38:50;10.48;;;5.20;;
50649;SDS011;36621;60.058;30.346;2023-11-19T17:46:24;15.95;;;6.50;;
50649;SDS011;36621;60.058;30.346;2023-11-19T17:53:57;12.95;;;6.53;;
50649;SDS011;36621;60.058;30.346;2023-11-19T18:01:29;12.27;;;6.15;;
50649;SDS011;36621;60.058;30.346;2023-11-19T18:09:04;16.05;;;6.85;;
50649;SDS011;36621;60.058;30.346;2023-11-19T18:16:37;11.40;;;6.68;;
50649;SDS011;36621;60.058;30.346;2023-11-19T18:24:10;14.85;;;5.90;;
50649;SDS011;36621;60.058;30.346;2023-11-19T18:31:43;12.73;;;7.50;;
50649;SDS011;36621;60.058;30.346;2023-11-19T18:39:16;16.05;;;8.85;;
50649;SDS011;36621;60.058;30.346;2023-11-19T18:46:49;21.27;;;10.30;;
50649;SDS011;36621;60.058;30.346;2023-11-19T18:54:22;22.65;;;9.25;;
50649;SDS011;36621;60.058;30.346;2023-11-19T19:01:55;22.52;;;12.52;;
50649;SDS011;36621;60.058;30.346;2023-11-19T19:09:28;22.65;;;11.10;;
50649;SDS011;36621;60.058;30.346;2023-11-19T19:17:02;22.85;;;10.88;;
50649;SDS011;36621;60.058;30.346;2023-11-19T19:24:36;24.35;;;11.32;;
50649;SDS011;36621;60.058;30.346;2023-11-19T19:32:09;25.30;;;12.65;;
50649;SDS011;36621;60.058;30.346;2023-11-19T19:39:43;21.98;;;10.73;;
50649;SDS011;36621;60.058;30.346;2023-11-19T19:47:16;21.25;;;10.25;;
50649;SDS011;36621;60.058;30.346;2023-11-19T19:54:50;18.33;;;9.52;;
50649;SDS011;36621;60.058;30.346;2023-11-19T20:02:23;16.77;;;9.18;;
50649;SDS011;36621;60.058;30.346;2023-11-19T20:09:55;21.05;;;8.80;;
50649;SDS011;36621;60.058;30.346;2023-11-19T20:17:28;17.50;;;8.18;;
50649;SDS011;36621;60.058;30.346;2023-11-19T20:25:01;13.73;;;7.25;;
50649;SDS011;36621;60.058;30.346;2023-11-19T20:32:34;12.40;;;6.97;;
50649;SDS011;36621;60.058;30.346;2023-11-19T20:40:09;13.52;;;6.65;;
50649;SDS011;36621;60.058;30.346;2023-11-19T20:47:43;11.80;;;7.40;;
50649;SDS011;36621;60.058;30.346;2023-11-19T20:55:20;11.90;;;6.80;;
50649;SDS011;36621;60.058;30.346;2023-11-19T21:02:53;16.05;;;8.07;;
50649;SDS011;36621;60.058;30.346;2023-11-19T21:10:26;13.35;;;7.80;;
50649;SDS011;36621;60.058;30.346;2023-11-19T21:17:58;16.17;;;7.45;;
50649;SDS011;36621;60.058;30.346;2023-11-19T21:25:32;13.95;;;7.28;;
50649;SDS011;36621;60.058;30.346;2023-11-19T21:33:04;11.48;;;6.80;;
50649;SDS011;36621;60.058;30.346;2023-11-19T21:40:37;9.38;;;6.28;;
50649;SDS011;36621;60.058;30.346;2023-11-19T21:48:10;11.02;;;6.07;;
50649;SDS011;36621;60.058;30.346;2023-11-19T21:55:43;11.60;;;6.35;;
50649;SDS011;36621;60.058;30.346;2023-11-19T22:03:15;11.27;;;6.78;;
50649;SDS011;36621;60.058;30.346;2023-11-19T22:10:48;12.57;;;6.25;;
50649;SDS011;36621;60.058;30.346;2023-11-19T22:18:20;10.40;;;6.47;;
50649;SDS011;36621;60.058;30.346;2023-11-19T22:25:53;10.85;;;6.28;;
50649;SDS011;36621;60.058;30.346;2023-11-19T22:33:25;11.27;;;6.50;;
50649;SDS011;36621;60.058;30.346;2023-11-19T22:41:00;11.82;;;6.55;;
50649;SDS011;36621;60.058;30.346;2023-11-19T22:48:32;10.65;;;6.72;;
50649;SDS011;36621;60.058;30.346;2023-11-19T22:56:06;12.55;;;7.72;;
50649;SDS011;36621;60.058;30.346;2023-11-19T23:03:39;11.65;;;6.38;;
50649;SDS011;36621;60.058;30.346;2023-11-19T23:11:11;10.85;;;6.25;;
50649;SDS011;36621;60.058;30.346;2023-11-19T23:18:44;12.55;;;6.32;;
50649;SDS011;36621;60.058;30.346;2023-11-19T23:26:16;13.10;;;6.38;;
50649;SDS011;36621;60.058;30.346;2023-11-19T23:33:48;13.52;;;6.57;;
50649;SDS011;36621;60.058;30.346;2023-11-19T23:41:21;10.95;;;6.80;;
50649;SDS011;36621;60.058;30.346;2023-11-19T23:48:54;11.32;;;7.07;;
50649;SDS011;36621;60.058;30.346;2023-11-19T23:56:27;10.20;;;6.63;;
